Time;durP1;ratioP1;P1;durP2;ratioP2;P2;SDS_P1;SDS_P2;PMS_P1;PMS_P2;Temp;Humidity;BMP_temperature;BMP_pressure;BME280_temperature;BME280_humidity;BME280_pressure;Samples;Min_cycle;Max_cycle;Signal;HPM_P1;HPM_P2
2023/09/03 00:01:41;;;;;;;;;;;23.40;92.10;;;23.63;54.29;99284.59;4959814;28;124119;-82
2023/09/03 00:04:08;;;;;;;;;;;23.40;92.10;;;23.60;54.34;99279.75;4925596;28;114506;-83
2023/09/03 00:06:34;;;;;;;;;;;23.20;92.10;;;23.57;54.18;99281.34;4930570;28;113780;-83
2023/09/03 00:09:01;;;;;;;;;;;23.30;92.30;;;23.56;54.48;99287.34;4946612;28;124305;-82
2023/09/03 00:11:27;;;;;;;;;;;23.40;92.40;;;23.54;54.40;99286.94;4963035;28;124044;-82
2023/09/03 00:13:54;;;;;;;;;;;23.40;92.50;;;23.52;54.70;99292.16;4935566;28;113961;-83
2023/09/03 00:16:20;;;;;;;;;;;23.30;92.50;;;23.51;54.72;99276.44;4960634;28;114562;-83
2023/09/03 00:18:47;;;;;;;;;;;23.30;92.50;;;23.49;54.75;99278.84;4945554;28;124455;-83
2023/09/03 00:21:14;;;;;;;;;;;23.20;92.60;;;23.46;54.77;99285.25;4920264;28;124503;-83
2023/09/03 00:23:40;;;;;;;;;;;23.20;92.60;;;23.44;54.77;99282.00;4945066;28;115406;-82
2023/09/03 00:26:06;;;;;;;;;;;23.20;92.80;;;23.43;54.82;99274.72;4932711;28;114773;-83
2023/09/03 00:28:33;;;;;;;;;;;23.20;92.80;;;23.41;55.11;99280.78;4944454;28;124816;-83
2023/09/03 00:31:09;;;;;;;;;;;23.20;92.80;;;23.38;54.81;99282.34;4947533;28;124585;-83
2023/09/03 00:33:37;;;;;;;;;;;23.20;92.90;;;23.36;54.90;99284.75;4932278;28;114694;-83
2023/09/03 00:36:08;;;;;;;;;;;23.10;92.80;;;23.33;55.13;99288.34;4947461;28;113837;-83
2023/09/03 00:38:38;;;;;;;;;;;23.10;93.00;;;23.30;55.11;99283.47;4926148;28;123514;-82
2023/09/03 00:41:06;;;;;;;;;;;23.10;93.00;;;23.28;55.32;99290.69;4934834;28;124412;-82
2023/09/03 00:43:34;;;;;;;;;;;23.10;93.10;;;23.24;55.67;99296.31;4928820;28;114303;-83
2023/09/03 00:46:03;;;;;;;;;;;23.00;93.10;;;23.22;55.29;99293.06;4930475;28;113796;-83
2023/09/03 00:48:32;;;;;;;;;;;23.00;93.20;;;23.20;55.37;99301.09;4940632;28;125165;-83
2023/09/03 00:51:02;;;;;;;;;;;23.00;93.30;;;23.17;55.60;99296.22;4954460;28;124852;-83
2023/09/03 00:53:30;;;;;;;;;;;23.00;93.40;;;23.16;55.56;99291.78;4930834;28;114723;-83
2023/09/03 00:55:56;;;;;;;;;;;22.90;93.40;;;23.13;55.73;99292.53;4938873;28;114077;-83
2023/09/03 00:58:23;;;;;;;;;;;22.90;93.40;;;23.10;55.77;99291.28;4941904;28;123815;-83
2023/09/03 01:00:52;;;;;;;;;;;22.90;93.50;;;23.08;55.64;99293.72;4920822;28;124053;-83
2023/09/03 01:03:21;;;;;;;;;;;22.90;93.50;;;23.07;55.89;99296.91;4957377;28;114779;-83
2023/09/03 01:05:47;;;;;;;;;;;22.80;93.50;;;23.02;55.62;99288.78;4944796;28;112934;-83
2023/09/03 01:08:13;;;;;;;;;;;22.80;93.60;;;22.97;55.96;99291.94;4945917;28;124277;-83
2023/09/03 01:10:52;;;;;;;;;;;22.70;93.50;;;22.92;55.94;99290.25;4929439;28;124021;-83
2023/09/03 01:13:28;;;;;;;;;;;22.70;93.60;;;22.89;56.09;99299.47;4934579;28;114695;-83
2023/09/03 01:15:57;;;;;;;;;;;22.70;93.70;;;22.87;56.27;99293.41;4948386;28;115021;-83
2023/09/03 01:18:24;;;;;;;;;;;22.70;93.80;;;22.84;56.28;99303.44;4958060;28;124416;-83
2023/09/03 01:20:58;;;;;;;;;;;22.60;93.80;;;22.82;56.22;99302.19;4946994;28;124045;-83
2023/09/03 01:23:45;;;;;;;;;;;22.60;93.90;;;22.78;56.26;99296.50;4967194;28;114293;-83
2023/09/03 01:26:25;;;;;;;;;;;22.60;93.90;;;22.77;56.47;99299.72;4927266;28;113645;-83
2023/09/03 01:28:52;;;;;;;;;;;22.50;93.90;;;22.75;56.24;99304.91;4933904;28;124270;-84
2023/09/03 01:31:19;;;;;;;;;;;22.50;94.00;;;22.74;56.33;99308.94;4939929;28;123175;-84
2023/09/03 01:33:46;;;;;;;;;;;22.50;94.10;;;22.71;56.24;99314.13;4954937;28;114611;-83
2023/09/03 01:36:13;;;;;;;;;;;22.50;94.10;;;22.69;56.58;99310.06;4934654;28;114241;-83
2023/09/03 01:38:42;;;;;;;;;;;22.50;94.10;;;22.68;56.49;99319.72;4921428;28;124348;-83
2023/09/03 01:41:09;;;;;;;;;;;22.40;94.10;;;22.65;56.46;99323.31;4931470;28;124091;-83
2023/09/03 01:43:35;;;;;;;;;;;22.40;94.20;;;22.63;56.55;99328.50;4932467;28;114473;-83
2023/09/03 01:46:08;;;;;;;;;;;22.40;94.30;;;22.62;56.75;99338.13;4961735;28;113752;-84
2023/09/03 01:48:56;;;;;;;;;;;22.40;94.30;;;22.59;56.62;99338.91;4946024;28;124435;-84
2023/09/03 01:51:31;;;;;;;;;;;22.40;94.40;;;22.57;56.94;99335.63;4932078;28;124001;-83
2023/09/03 01:54:15;;;;;;;;;;;22.30;94.40;;;22.55;56.98;99340.88;4951586;28;114417;-84
2023/09/03 01:56:47;;;;;;;;;;;22.30;94.50;;;22.50;57.06;99342.00;4951025;28;114374;-84
2023/09/03 01:59:25;;;;;;;;;;;22.30;94.50;;;22.48;57.17;99345.19;4925075;28;124864;-83
2023/09/03 02:01:52;;;;;;;;;;;22.30;94.60;;;22.46;57.36;99341.97;4952791;28;123120;-84
2023/09/03 02:04:19;;;;;;;;;;;22.20;94.60;;;22.44;57.19;99333.06;4941648;28;114539;-83
2023/09/03 02:06:48;;;;;;;;;;;22.20;94.80;;;22.43;57.20;99336.25;4945263;28;115039;-83
2023/09/03 02:09:14;;;;;;;;;;;22.20;94.70;;;22.41;57.14;99347.91;4949772;28;124039;-85
2023/09/03 02:11:43;;;;;;;;;;;22.20;94.70;;;22.41;57.34;99342.28;4938327;28;124111;-84
2023/09/03 02:14:09;;;;;;;;;;;22.20;94.80;;;22.40;57.30;99345.47;4922187;28;114087;-84
2023/09/03 02:16:35;;;;;;;;;;;22.20;94.80;;;22.37;57.54;99352.66;4924868;28;113906;-84
2023/09/03 02:19:02;;;;;;;;;;;22.10;94.80;;;22.36;57.43;99365.13;4944456;28;125574;-84
2023/09/03 02:21:28;;;;;;;;;;;22.10;94.80;;;22.34;57.69;99356.22;4956687;28;124071;-85
2023/09/03 02:23:54;;;;;;;;;;;22.10;94.90;;;22.35;57.58;99359.84;4932747;28;114329;-84
2023/09/03 02:26:23;;;;;;;;;;;22.10;94.90;;;22.34;57.47;99355.44;4936955;28;113683;-84
2023/09/03 02:28:50;;;;;;;;;;;22.10;95.00;;;22.32;57.78;99357.81;4949727;28;124010;-85
2023/09/03 02:31:16;;;;;;;;;;;22.10;95.00;;;22.31;57.75;99359.00;4945035;28;123238;-84
2023/09/03 02:33:44;;;;;;;;;;;22.00;95.10;;;22.28;57.95;99352.94;4943661;28;113313;-85
2023/09/03 02:36:13;;;;;;;;;;;22.00;95.10;;;22.26;57.67;99360.13;4929450;28;113601;-84
2023/09/03 02:38:40;;;;;;;;;;;22.00;95.20;;;22.26;58.03;99357.31;4937550;28;123294;-84
2023/09/03 02:41:08;;;;;;;;;;;22.00;95.30;;;22.22;58.17;99360.06;4937156;28;123980;-84
2023/09/03 02:43:35;;;;;;;;;;;22.00;95.30;;;22.19;58.29;99355.22;4931463;28;114497;-84
2023/09/03 02:46:01;;;;;;;;;;;22.00;95.40;;;22.17;58.28;99351.91;4949394;28;112722;-84
2023/09/03 02:48:27;;;;;;;;;;;21.90;95.40;;;22.14;58.65;99352.69;4960874;28;123531;-83
2023/09/03 02:50:53;;;;;;;;;;;21.90;95.50;;;22.11;58.46;99361.03;4932358;28;124468;-84
2023/09/03 02:53:20;;;;;;;;;;;21.90;95.60;;;22.09;58.59;99360.63;4938881;28;115226;-85
2023/09/03 02:55:46;;;;;;;;;;;21.90;95.60;;;22.06;58.50;99370.63;4943553;28;114495;-84
2023/09/03 02:58:12;;;;;;;;;;;21.80;95.70;;;22.04;58.80;99371.00;4950280;28;124126;-83
2023/09/03 03:00:38;;;;;;;;;;;21.80;95.70;;;22.03;58.68;99369.38;4939879;28;123967;-85
2023/09/03 03:03:07;;;;;;;;;;;21.80;95.80;;;22.02;59.00;99367.75;4941177;28;114904;-84
2023/09/03 03:05:33;;;;;;;;;;;21.80;95.80;;;22.00;59.03;99374.94;4948014;28;113790;-82
2023/09/03 03:08:02;;;;;;;;;;;21.80;95.90;;;21.99;59.01;99371.31;4946593;28;123676;-85
2023/09/03 03:10:29;;;;;;;;;;;21.70;95.90;;;21.98;58.78;99372.50;4940799;28;124568;-85
2023/09/03 03:12:55;;;;;;;;;;;21.70;95.90;;;21.98;59.04;99371.69;4916880;28;114608;-85
2023/09/03 03:15:24;;;;;;;;;;;21.70;96.00;;;21.96;59.06;99368.44;4944024;28;113761;-84
2023/09/03 03:17:50;;;;;;;;;;;21.70;96.00;;;21.93;59.14;99364.38;4930595;28;124140;-84
2023/09/03 03:20:16;;;;;;;;;;;21.70;96.10;;;21.91;58.88;99372.38;4917531;28;122882;-85
2023/09/03 03:22:43;;;;;;;;;;;21.70;96.10;;;21.90;59.10;99370.75;4935316;28;114400;-85
2023/09/03 03:25:11;;;;;;;;;;;21.60;96.10;;;21.90;58.90;99365.13;4934616;28;113650;-85
2023/09/03 03:27:38;;;;;;;;;;;21.60;96.10;;;21.89;59.19;99377.56;4947606;28;123626;-84
2023/09/03 03:30:05;;;;;;;;;;;21.60;96.10;;;21.87;59.29;99379.94;4944044;28;123816;-85
2023/09/03 03:32:33;;;;;;;;;;;21.60;96.20;;;21.85;59.00;99373.88;4935235;28;113503;-85
2023/09/03 03:35:00;;;;;;;;;;;21.60;96.20;;;21.83;59.06;99387.50;4948596;28;113224;-85
2023/09/03 03:37:26;;;;;;;;;;;21.60;96.20;;;21.82;58.99;99385.88;4949527;28;123913;-85
2023/09/03 03:39:52;;;;;;;;;;;21.50;96.20;;;21.78;59.27;99382.19;4930250;28;122797;-84
2023/09/03 03:42:18;;;;;;;;;;;21.50;96.20;;;21.75;59.24;99397.78;4932096;28;115323;-85
2023/09/03 03:44:45;;;;;;;;;;;21.50;96.20;;;21.74;59.61;99404.63;4931061;28;114888;-84
2023/09/03 03:47:12;;;;;;;;;;;21.50;96.30;;;21.72;59.41;99414.63;4918376;28;124231;-85
2023/09/03 03:49:40;;;;;;;;;;;21.50;96.30;;;21.70;59.31;99405.72;4933598;28;97818;-84
2023/09/03 03:52:06;;;;;;;;;;;21.40;96.40;;;21.68;59.79;99394.03;4945754;28;114252;-84
2023/09/03 03:54:32;;;;;;;;;;;21.40;96.30;;;21.68;59.54;99394.03;4949912;28;113784;-85
2023/09/03 03:56:59;;;;;;;;;;;21.40;96.40;;;21.67;59.69;99398.03;4930635;28;124413;-84
2023/09/03 03:59:25;;;;;;;;;;;21.40;96.40;;;21.65;59.55;99403.22;4930980;28;123775;-84
2023/09/03 04:01:51;;;;;;;;;;;21.40;96.50;;;21.64;59.80;99404.41;4950841;28;114509;-85
2023/09/03 04:04:17;;;;;;;;;;;21.40;96.60;;;21.64;59.81;99407.22;4919667;28;112944;-85
2023/09/03 04:06:44;;;;;;;;;;;21.40;96.60;;;21.62;59.75;99405.59;4939451;28;124290;-85
2023/09/03 04:09:10;;;;;;;;;;;21.40;96.60;;;21.61;59.56;99403.97;4943657;28;123949;-85
2023/09/03 04:11:36;;;;;;;;;;;21.30;96.60;;;21.60;59.92;99407.97;4952369;28;113807;-85
2023/09/03 04:14:03;;;;;;;;;;;20.50;96.20;;;21.58;59.78;99404.72;4944407;28;113213;-84
2023/09/03 04:16:32;;;;;;;;;;;21.30;96.60;;;21.57;59.70;99413.50;4930869;28;124201;-85
2023/09/03 04:18:58;;;;;;;;;;;21.30;96.60;;;21.55;59.93;99411.09;4942542;28;123971;-85
2023/09/03 04:21:24;;;;;;;;;;;21.30;96.70;;;21.53;59.83;99413.44;4941529;28;114497;-85
2023/09/03 04:23:51;;;;;;;;;;;21.30;96.70;;;21.51;60.08;99418.63;4934585;28;113947;-85
2023/09/03 04:26:17;;;;;;;;;;;21.30;96.70;;;21.49;59.74;99420.97;4948560;28;124244;-84
2023/09/03 04:28:43;;;;;;;;;;;21.20;96.70;;;21.47;59.89;99420.56;4948294;28;123899;-85
2023/09/03 04:31:10;;;;;;;;;;;21.20;96.70;;;21.46;60.13;99423.72;4941395;28;115730;-85
2023/09/03 04:33:36;;;;;;;;;;;21.20;96.80;;;21.45;60.22;99430.56;4949501;28;114654;-85
2023/09/03 04:36:03;;;;;;;;;;;21.20;96.80;;;21.41;60.25;99433.28;4933737;28;125155;-85
2023/09/03 04:38:30;;;;;;;;;;;21.20;96.80;;;21.41;60.29;99436.09;4933416;28;124740;-85
2023/09/03 04:40:56;;;;;;;;;;;21.10;96.80;;;21.36;60.17;99439.19;4925991;28;113893;-85
2023/09/03 04:43:23;;;;;;;;;;;21.10;96.90;;;21.30;60.51;99454.69;4948074;28;114615;-85
2023/09/03 04:45:55;;;;;;;;;;;21.10;96.90;;;21.26;60.41;99445.38;4930526;28;124297;-85
2023/09/03 04:48:24;;;;;;;;;;;19.10;96.10;;;21.23;60.57;99454.56;4904372;28;123067;-85
2023/09/03 04:50:50;;;;;;;;;;;21.00;97.00;;;21.22;60.61;99455.72;4947578;28;114553;-85
2023/09/03 04:53:16;;;;;;;;;;;21.00;97.10;;;21.14;61.07;99452.78;4921304;28;112658;-85
2023/09/03 04:55:45;;;;;;;;;;;20.90;97.20;;;21.11;60.81;99453.47;4929341;28;123908;-85
2023/09/03 04:58:11;;;;;;;;;;;20.90;97.20;;;21.11;61.08;99456.28;4950680;28;123972;-85
2023/09/03 05:00:39;;;;;;;;;;;20.90;97.30;;;21.11;60.97;99453.47;4947528;28;114377;-85
2023/09/03 05:03:05;;;;;;;;;;;20.80;97.30;;;21.13;61.07;99455.94;4955251;28;113834;-86
2023/09/03 05:05:39;;;;;;;;;;;20.90;97.70;;;21.14;61.34;99458.41;4930739;28;124361;-85
2023/09/03 05:08:05;;;;;;;;;;;20.90;97.40;;;21.16;61.00;99470.06;4940979;28;123293;-85
2023/09/03 05:10:31;;;;;;;;;;;20.90;97.50;;;21.17;61.25;99468.91;4945550;28;113944;-85
2023/09/03 05:13:00;;;;;;;;;;;20.90;97.50;;;21.21;61.17;99474.59;4944108;28;113838;-85
2023/09/03 05:15:27;;;;;;;;;;;20.90;97.50;;;21.21;61.23;99479.41;4933783;28;123308;-85
2023/09/03 05:17:53;;;;;;;;;;;20.90;97.60;;;21.22;60.88;99479.00;4929688;28;124368;-85
2023/09/03 05:20:19;;;;;;;;;;;20.90;97.60;;;21.23;61.20;99480.66;4920543;28;115543;-84
2023/09/03 05:22:45;;;;;;;;;;;20.90;97.60;;;21.24;61.22;99481.47;4929937;28;114937;-85
2023/09/03 05:25:12;;;;;;;;;;;20.90;97.60;;;21.22;61.10;99481.00;4940486;28;124723;-85
2023/09/03 05:27:38;;;;;;;;;;;20.90;97.60;;;21.23;61.36;99483.47;4937830;28;123987;-85
2023/09/03 05:30:06;;;;;;;;;;;20.90;97.60;;;21.24;61.23;99487.09;4923615;28;113338;-85
2023/09/03 05:32:32;;;;;;;;;;;20.90;97.70;;;21.25;61.23;99488.72;4926990;28;114044;-85
2023/09/03 05:34:58;;;;;;;;;;;21.00;97.70;;;21.26;61.12;99496.78;4939268;28;124172;-85
2023/09/03 05:37:24;;;;;;;;;;;21.00;97.70;;;21.29;61.26;99498.06;4957713;28;123963;-85
2023/09/03 05:39:51;;;;;;;;;;;21.00;97.80;;;21.30;60.95;99494.84;4943299;28;114175;-85
2023/09/03 05:42:17;;;;;;;;;;;20.90;97.70;;;21.31;61.38;99490.06;4933487;28;113962;-85
2023/09/03 05:44:44;;;;;;;;;;;21.00;97.80;;;21.32;61.30;99497.31;4943647;28;124234;-85
2023/09/03 05:47:13;;;;;;;;;;;21.00;97.80;;;21.33;61.34;99493.31;4936942;28;123865;-85
2023/09/03 05:49:39;;;;;;;;;;;21.00;97.80;;;21.33;61.38;99499.75;4940510;28;113677;-84
2023/09/03 05:52:06;;;;;;;;;;;21.00;97.80;;;21.33;61.15;99496.94;4932990;28;113825;-85
2023/09/03 05:54:32;;;;;;;;;;;21.00;97.80;;;21.35;61.15;99502.19;4956563;28;124261;-85
2023/09/03 05:57:01;;;;;;;;;;;21.00;97.90;;;21.33;61.59;99496.94;4929487;28;124926;-85
2023/09/03 05:59:27;;;;;;;;;;;21.00;97.90;;;21.34;61.65;99489.31;4939852;28;114628;-85
2023/09/03 06:01:57;;;;;;;;;;;21.00;97.90;;;21.30;61.29;99492.03;4927723;28;112795;-84
2023/09/03 06:04:23;;;;;;;;;;;21.00;97.90;;;21.29;61.73;99492.44;4930547;28;124466;-85
2023/09/03 06:06:49;;;;;;;;;;;21.00;97.90;;;21.26;61.37;99481.91;4929172;28;124277;-84
2023/09/03 06:09:18;;;;;;;;;;;21.00;97.90;;;21.24;61.82;99489.91;4927869;28;115292;-85
2023/09/03 06:11:46;;;;;;;;;;;21.00;98.00;;;21.23;61.68;99489.09;4932176;28;114898;-85
2023/09/03 06:14:13;;;;;;;;;;;20.90;98.00;;;21.25;61.94;99494.31;4938619;28;124258;-83
2023/09/03 06:16:40;;;;;;;;;;;20.90;98.00;;;21.29;61.46;99498.84;4942317;28;123090;-85
2023/09/03 06:19:06;;;;;;;;;;;21.00;98.00;;;21.34;61.66;99495.75;4932117;28;114931;-84
2023/09/03 06:21:32;;;;;;;;;;;21.00;98.10;;;21.39;61.51;99503.94;4925926;28;113851;-85
2023/09/03 06:23:58;;;;;;;;;;;21.00;98.10;;;21.45;61.15;99501.66;4926942;28;123487;-84
2023/09/03 06:26:25;;;;;;;;;;;21.00;98.10;;;21.49;61.61;99510.97;4938381;28;124398;-84
2023/09/03 06:28:51;;;;;;;;;;;21.10;98.50;;;21.51;61.64;99510.59;4947488;28;114751;-82
2023/09/03 06:31:20;;;;;;;;;;;21.10;98.10;;;21.52;61.63;99523.47;4948443;28;113774;-84
2023/09/03 06:33:46;;;;;;;;;;;21.10;98.10;;;21.54;61.39;99516.28;4932123;28;124439;-84
2023/09/03 06:36:14;;;;;;;;;;;21.10;98.10;;;21.59;61.43;99527.25;4934836;28;123051;-85
2023/09/03 06:38:44;;;;;;;;;;;21.20;98.10;;;21.64;61.24;99525.34;4938421;28;115035;-85
2023/09/03 06:41:10;;;;;;;;;;;21.20;98.10;;;21.68;61.26;99529.88;4919813;28;113908;-84
2023/09/03 06:43:37;;;;;;;;;;;21.30;98.20;;;21.73;60.98;99534.38;4945214;28;124216;-84
2023/09/03 06:46:03;;;;;;;;;;;21.30;98.10;;;21.74;60.98;99541.66;4922014;28;123925;-84
2023/09/03 06:48:32;;;;;;;;;;;21.30;98.10;;;21.75;61.12;99537.63;4931808;28;115010;-86
2023/09/03 06:50:58;;;;;;;;;;;21.30;98.10;;;21.74;61.22;99541.66;4953892;28;114253;-84
2023/09/03 06:53:24;;;;;;;;;;;21.40;98.10;;;21.76;61.28;99542.06;4932037;28;124184;-84
2023/09/03 06:55:53;;;;;;;;;;;21.40;98.10;;;21.78;61.20;99553.78;4942458;28;124774;-83
2023/09/03 06:58:22;;;;;;;;;;;21.40;98.10;;;21.79;61.03;99558.22;4935887;28;115642;-85
2023/09/03 07:00:48;;;;;;;;;;;21.40;98.10;;;21.82;61.17;99560.31;4948233;28;114433;-84
2023/09/03 07:03:15;;;;;;;;;;;21.40;98.10;;;21.83;61.30;99562.72;4930720;28;124034;-85
2023/09/03 07:05:41;;;;;;;;;;;21.40;98.10;;;21.86;61.07;99566.00;4948013;28;122877;-83
2023/09/03 07:08:07;;;;;;;;;;;21.50;98.20;;;21.88;60.99;99578.50;4931603;28;114693;-83
2023/09/03 07:10:34;;;;;;;;;;;21.50;98.20;;;21.92;60.93;99584.19;4944992;28;113821;-83
2023/09/03 07:13:00;;;;;;;;;;;21.50;98.20;;;21.95;61.14;99575.84;4926939;28;124176;-84
2023/09/03 07:15:26;;;;;;;;;;;21.50;98.20;;;21.96;61.09;99580.28;4934563;28;122746;-84
2023/09/03 07:17:52;;;;;;;;;;;21.50;98.20;;;21.94;61.01;99577.03;4931279;28;114528;-84
2023/09/03 07:20:19;;;;;;;;;;;21.50;98.20;;;21.93;61.07;99583.03;4943379;28;113148;-84
2023/09/03 07:22:45;;;;;;;;;;;21.50;98.20;;;21.94;61.17;99582.66;4944540;28;124215;-85
2023/09/03 07:25:11;;;;;;;;;;;21.50;98.20;;;21.97;60.96;99590.34;4948651;28;124626;-84
2023/09/03 07:27:41;;;;;;;;;;;21.60;98.20;;;22.01;61.09;99587.63;4945906;28;114461;-83
2023/09/03 07:30:09;;;;;;;;;;;21.60;98.20;;;22.02;61.05;99592.88;4946372;28;113910;-84
2023/09/03 07:32:38;;;;;;;;;;;21.60;98.10;;;22.07;60.91;99597.41;4934087;28;122266;-84
2023/09/03 07:35:05;;;;;;;;;;;21.70;98.10;;;22.11;60.83;99595.47;4955863;28;123685;-83
2023/09/03 07:37:32;;;;;;;;;;;21.70;98.10;;;22.14;60.78;99596.72;4945792;28;113931;-83
2023/09/03 07:39:58;;;;;;;;;;;21.70;98.10;;;22.15;60.61;99604.00;4950332;28;113915;-85
2023/09/03 07:42:25;;;;;;;;;;;21.70;98.10;;;22.19;60.38;99596.44;4949160;28;124215;-85
2023/09/03 07:44:52;;;;;;;;;;;21.80;98.10;;;22.24;60.54;99598.97;4955997;28;123018;-85
2023/09/03 07:47:18;;;;;;;;;;;21.80;98.10;;;22.26;60.29;99608.66;4943103;28;115357;-84
2023/09/03 07:49:47;;;;;;;;;;;21.80;98.10;;;22.26;60.36;99602.22;4936173;28;114921;-84
2023/09/03 07:52:16;;;;;;;;;;;21.80;98.00;;;22.21;60.20;99605.34;4918765;28;124153;-84
2023/09/03 07:54:44;;;;;;;;;;;21.80;98.00;;;22.23;60.38;99597.34;4949758;28;124585;-84
2023/09/03 07:57:10;;;;;;;;;;;21.80;98.00;;;22.26;60.32;99603.03;4948847;28;114396;-84
2023/09/03 07:59:39;;;;;;;;;;;21.80;97.90;;;22.32;60.28;99608.38;4949287;28;113766;-84
2023/09/03 08:02:08;;;;;;;;;;;21.90;97.90;;;22.37;60.12;99614.53;4955805;28;123098;-84
2023/09/03 08:04:34;;;;;;;;;;;21.90;97.90;;;22.38;60.20;99616.16;4922116;28;122389;-84
2023/09/03 08:07:02;;;;;;;;;;;22.00;97.90;;;22.42;60.24;99622.66;4912102;28;114226;-83
2023/09/03 08:09:29;;;;;;;;;;;22.00;97.90;;;22.52;60.15;99614.81;4947333;28;114894;-84
2023/09/03 08:11:57;;;;;;;;;;;22.10;98.00;;;22.59;59.77;99621.38;4936894;28;124671;-84
2023/09/03 08:14:27;;;;;;;;;;;22.10;98.00;;;22.67;59.79;99625.16;4935764;28;123624;-83
2023/09/03 08:16:55;;;;;;;;;;;22.10;97.90;;;22.72;59.62;99614.38;4947348;28;114540;-84
2023/09/03 08:19:21;;;;;;;;;;;22.20;98.00;;;22.80;59.39;99623.78;4925573;28;113490;-83
2023/09/03 08:21:50;;;;;;;;;;;22.30;97.90;;;22.83;59.44;99625.84;4920426;28;123424;-84
2023/09/03 08:24:17;;;;;;;;;;;22.30;97.90;;;22.85;59.69;99620.66;4937969;28;123020;-84
2023/09/03 08:26:43;;;;;;;;;;;22.30;97.80;;;22.88;59.62;99614.25;4921677;28;113417;-84
2023/09/03 08:29:09;;;;;;;;;;;22.40;97.90;;;22.95;59.54;99624.88;4917444;28;112893;-84
2023/09/03 08:31:38;;;;;;;;;;;22.40;97.80;;;23.00;59.46;99624.59;4945106;28;124366;-84
2023/09/03 08:34:04;;;;;;;;;;;22.50;97.80;;;23.06;59.41;99627.91;4920652;28;124415;-82
2023/09/03 08:36:30;;;;;;;;;;;22.50;97.80;;;23.15;59.07;99614.34;4930965;28;115504;-83
2023/09/03 08:38:57;;;;;;;;;;;22.60;97.80;;;23.25;58.84;99618.56;4936967;28;113970;-82
2023/09/03 08:41:24;;;;;;;;;;;22.70;97.80;;;23.32;59.04;99618.63;4958080;28;124208;-83
2023/09/03 08:43:59;;;;;;;;;;;22.70;97.70;;;23.38;58.76;99617.16;4920884;28;124523;-83
2023/09/03 08:46:30;;;;;;;;;;;22.90;97.70;;;23.43;58.53;99613.16;4926691;28;114618;-81
2023/09/03 08:48:59;;;;;;;;;;;22.90;97.60;;;23.51;58.57;99620.56;4930833;28;113740;-81
2023/09/03 08:51:27;;;;;;;;;;;23.00;97.60;;;23.59;58.41;99616.66;4930579;28;124177;-81
2023/09/03 08:53:54;;;;;;;;;;;23.00;97.50;;;23.64;58.14;99613.50;4927810;28;124071;-81
2023/09/03 08:56:23;;;;;;;;;;;23.10;97.50;;;23.70;58.10;99625.28;4931142;28;114231;-81
2023/09/03 08:58:49;;;;;;;;;;;23.10;97.50;;;23.77;58.44;99628.22;4930636;28;113516;-81
2023/09/03 09:01:16;;;;;;;;;;;23.20;97.40;;;23.84;57.83;99627.53;4950312;28;124320;-81
2023/09/03 09:03:44;;;;;;;;;;;23.30;97.30;;;23.90;57.81;99626.00;4965432;28;123264;-82
2023/09/03 09:06:13;;;;;;;;;;;23.30;97.20;;;23.96;57.47;99636.56;4939647;28;114673;-82
2023/09/03 09:08:40;;;;;;;;;;;23.40;97.20;;;23.99;57.40;99635.81;4949757;28;112251;-82
2023/09/03 09:11:11;;;;;;;;;;;23.40;97.00;;;24.03;57.49;99633.84;4929927;28;124485;-83
2023/09/03 09:13:38;;;;;;;;;;;23.50;97.00;;;24.07;57.25;99641.53;4946962;28;123931;-82
2023/09/03 09:16:04;;;;;;;;;;;23.50;96.90;;;24.13;57.13;99652.13;4930063;28;114477;-82
2023/09/03 09:18:30;;;;;;;;;;;23.50;96.90;;;24.20;56.95;99648.56;4930548;28;114371;-82
2023/09/03 09:21:02;;;;;;;;;;;23.60;96.90;;;24.28;56.67;99649.47;4946112;28;124236;-82
2023/09/03 09:23:30;;;;;;;;;;;23.70;96.70;;;24.36;56.16;99637.88;4938963;28;124486;-82
2023/09/03 09:25:58;;;;;;;;;;;23.80;96.50;;;24.46;56.25;99642.06;4925628;28;114696;-81
2023/09/03 09:28:25;;;;;;;;;;;23.90;96.50;;;24.55;56.09;99645.38;4953415;28;114809;-82
2023/09/03 09:30:56;;;;;;;;;;;23.90;96.40;;;24.65;56.10;99644.69;4959992;28;124156;-82
2023/09/03 09:33:25;;;;;;;;;;;24.00;96.30;;;24.72;55.48;99654.44;4920344;28;124826;-82
2023/09/03 09:35:52;;;;;;;;;;;24.10;96.10;;;24.77;55.52;99648.44;4935469;28;114835;-82
2023/09/03 09:38:19;;;;;;;;;;;24.20;96.10;;;24.85;55.07;99647.31;4928807;28;113674;-82
2023/09/03 09:40:47;;;;;;;;;;;24.30;96.00;;;24.90;54.63;99653.47;4944601;28;124626;-81
2023/09/03 09:43:16;;;;;;;;;;;24.30;95.60;;;24.94;54.16;99659.16;4924849;28;124752;-82
2023/09/03 09:45:51;;;;;;;;;;;24.40;95.50;;;25.00;53.69;99660.41;4934365;28;114982;-82
2023/09/03 09:48:18;;;;;;;;;;;24.40;95.20;;;25.06;53.64;99647.53;4931846;28;113801;-82
2023/09/03 09:50:45;;;;;;;;;;;24.50;95.20;;;25.11;53.77;99655.66;4932780;28;124379;-82
2023/09/03 09:53:24;;;;;;;;;;;24.60;95.00;;;25.15;52.71;99655.75;4954152;28;123430;-82
2023/09/03 09:56:01;;;;;;;;;;;24.60;94.50;;;25.21;52.27;99650.53;4947064;28;114371;-82
2023/09/03 09:58:41;;;;;;;;;;;24.70;94.30;;;25.28;52.29;99654.25;4928172;28;114056;-82
2023/09/03 10:01:09;;;;;;;;;;;24.70;94.20;;;25.38;51.72;99652.69;4932857;28;123286;-82
2023/09/03 10:03:46;;;;;;;;;;;24.80;94.00;;;25.45;51.22;99647.09;4937052;28;123811;-82
2023/09/03 10:06:16;;;;;;;;;;;24.90;93.60;;;25.48;50.91;99649.13;4937356;28;114252;-82
2023/09/03 10:08:45;;;;;;;;;;;25.00;93.30;;;25.56;51.07;99652.84;4919924;28;114030;-81
2023/09/03 10:11:11;;;;;;;;;;;25.10;93.40;;;25.64;49.81;99648.03;4941959;28;123542;-82
2023/09/03 10:13:42;;;;;;;;;;;25.10;93.00;;;25.69;50.35;99651.31;4931390;28;123131;-82
2023/09/03 10:16:09;;;;;;;;;;;25.20;92.90;;;25.73;50.18;99651.34;4932889;28;115465;-81
2023/09/03 10:18:42;;;;;;;;;;;25.30;92.90;;;25.78;49.89;99648.94;4933085;28;114631;-82
2023/09/03 10:21:09;;;;;;;;;;;25.30;92.90;;;25.77;50.04;99646.50;4932395;28;123995;-82
2023/09/03 10:23:51;;;;;;;;;;;25.30;92.80;;;25.77;49.58;99638.84;4933329;28;123786;-81
2023/09/03 10:26:27;;;;;;;;;;;25.30;92.40;;;25.83;49.80;99644.94;4934839;28;114468;-81
2023/09/03 10:28:57;;;;;;;;;;;25.40;92.40;;;25.91;49.49;99634.50;4916355;28;113501;-81
2023/09/03 10:31:24;;;;;;;;;;;25.40;92.30;;;25.99;48.67;99633.31;4927579;28;124196;-81
2023/09/03 10:33:50;;;;;;;;;;;25.50;92.00;;;26.07;48.93;99625.69;4932648;28;124616;-81
2023/09/03 10:36:18;;;;;;;;;;;25.60;91.90;;;26.15;47.96;99621.66;4936332;28;114457;-81
2023/09/03 10:38:47;;;;;;;;;;;25.70;91.50;;;26.20;47.54;99630.59;4939497;28;113857;-82
2023/09/03 10:41:19;;;;;;;;;;;25.70;91.10;;;26.27;46.25;99632.63;4935546;28;124222;-82
2023/09/03 10:43:49;;;;;;;;;;;25.70;90.50;;;26.33;46.61;99633.06;4950347;28;123878;-82
2023/09/03 10:46:15;;;;;;;;;;;25.80;90.50;;;26.38;45.59;99616.50;4936500;28;114839;-81
2023/09/03 10:48:57;;;;;;;;;;;25.90;89.60;;;26.44;45.80;99625.44;4953427;28;114117;-81
2023/09/03 10:51:35;;;;;;;;;;;25.90;89.60;;;26.52;45.55;99634.78;4933604;28;124461;-81
2023/09/03 10:54:20;;;;;;;;;;;26.00;89.40;;;26.58;44.46;99616.97;4936000;28;123898;-81
2023/09/03 10:57:19;;;;;;;;;;;26.00;88.40;;;26.59;44.38;99612.94;4938112;28;114010;-81
2023/09/03 10:59:57;;;;;;;;;;;26.00;87.40;;;26.66;43.97;99618.63;4913506;28;114494;-82
2023/09/03 11:02:31;;;;;;;;;;;26.10;87.40;;;26.74;43.73;99616.63;4955054;28;124899;-81
2023/09/03 11:05:21;;;;;;;;;;;26.20;86.50;;;26.80;43.47;99623.50;4964506;28;124629;-81
2023/09/03 11:08:20;;;;;;;;;;;26.20;86.20;;;26.91;43.58;99626.34;4955172;28;115192;-82
2023/09/03 11:10:47;;;;;;;;;;;26.30;86.30;;;27.05;42.93;99617.84;4933297;28;115008;-81
2023/09/03 11:13:14;;;;;;;;;;;26.50;85.70;;;27.18;42.74;99621.13;4920754;28;123437;-81
2023/09/03 11:15:52;;;;;;;;;;;26.60;85.10;;;27.27;42.83;99615.06;4935673;28;124054;-82